createdAt,value
2018-02-07T00:00:46.570Z,1006.69
2018-02-07T00:01:46.567Z,1006.69
2018-02-07T00:02:46.523Z,1006.73
2018-02-07T00:03:46.502Z,1006.72
2018-02-07T00:04:46.509Z,1006.72
2018-02-07T00:05:46.449Z,1006.74
2018-02-07T00:06:46.422Z,1006.74
2018-02-07T00:07:46.400Z,1006.78
2018-02-07T00:08:46.377Z,1006.80
2018-02-07T00:09:46.370Z,1006.82
2018-02-07T00:10:46.329Z,1006.80
2018-02-07T00:11:46.298Z,1006.83
2018-02-07T00:12:46.276Z,1006.79
2018-02-07T00:13:46.253Z,1006.80
2018-02-07T00:14:46.226Z,1006.81
2018-02-07T00:15:46.202Z,1006.78
2018-02-07T00:16:46.177Z,1006.79
2018-02-07T00:17:46.151Z,1006.79
2018-02-07T00:18:46.127Z,1006.79
2018-02-07T00:19:46.104Z,1006.81
2018-02-07T00:20:46.079Z,1006.82
2018-02-07T00:21:46.055Z,1006.84
2018-02-07T00:22:46.025Z,1006.88
2018-02-07T00:23:46.004Z,1006.84
2018-02-07T00:24:45.976Z,1006.82
2018-02-07T00:25:45.952Z,1006.80
2018-02-07T00:26:45.932Z,1006.77
2018-02-07T00:27:45.911Z,1006.85
2018-02-07T00:28:45.875Z,1006.75
2018-02-07T00:29:45.851Z,1006.77
2018-02-07T00:30:45.829Z,1006.74
2018-02-07T00:31:45.806Z,1006.71
2018-02-07T00:32:45.781Z,1006.71
2018-02-07T00:33:45.757Z,1006.70
2018-02-07T00:34:45.736Z,1006.72
2018-02-07T00:35:45.701Z,1006.71
2018-02-07T00:36:45.679Z,1006.71
2018-02-07T00:37:45.657Z,1006.63
2018-02-07T00:38:45.642Z,1006.66
2018-02-07T00:39:45.602Z,1006.67
2018-02-07T00:40:45.584Z,1006.65
2018-02-07T00:41:45.560Z,1006.64
2018-02-07T00:42:45.591Z,1006.62
2018-02-07T00:43:45.511Z,1006.65
2018-02-07T00:44:45.480Z,1006.67
2018-02-07T00:45:45.496Z,1006.71
2018-02-07T00:46:45.433Z,1006.71
2018-02-07T00:47:45.407Z,1006.72
2018-02-07T00:48:45.381Z,1006.71
2018-02-07T00:49:45.353Z,1006.72
2018-02-07T00:50:45.338Z,1006.73
2018-02-07T00:51:45.305Z,1006.68
2018-02-07T00:52:45.282Z,1006.68
2018-02-07T00:53:45.257Z,1006.72
2018-02-07T00:54:45.241Z,1006.66
2018-02-07T00:55:45.206Z,1006.64
2018-02-07T00:56:45.178Z,1006.66
2018-02-07T00:57:45.161Z,1006.67
2018-02-07T00:58:45.132Z,1006.65
2018-02-07T00:59:45.111Z,1006.65
2018-02-07T01:00:45.078Z,1006.65
2018-02-07T01:01:45.056Z,1006.64
2018-02-07T01:02:45.035Z,1006.64
2018-02-07T01:03:45.004Z,1006.70
2018-02-07T01:04:44.980Z,1006.66
2018-02-07T01:05:44.956Z,1006.66
2018-02-07T01:06:44.926Z,1006.69
2018-02-07T01:07:44.900Z,1006.66
2018-02-07T01:08:44.876Z,1006.68
2018-02-07T01:09:44.862Z,1006.68
2018-02-07T01:10:44.830Z,1006.71
2018-02-07T01:11:44.806Z,1006.67
2018-02-07T01:12:44.779Z,1006.68
2018-02-07T01:13:44.754Z,1006.76
2018-02-07T01:14:44.730Z,1006.67
2018-02-07T01:15:44.700Z,1006.67
2018-02-07T01:16:44.679Z,1006.68
2018-02-07T01:17:44.654Z,1006.69
2018-02-07T01:18:44.630Z,1006.73
2018-02-07T01:19:44.599Z,1006.78
2018-02-07T01:20:44.578Z,1006.72
2018-02-07T01:21:44.555Z,1006.74
2018-02-07T01:22:44.526Z,1006.72
2018-02-07T01:23:44.520Z,1006.75
2018-02-07T01:24:44.478Z,1006.71
2018-02-07T01:25:44.455Z,1006.72
2018-02-07T01:26:44.431Z,1006.70
2018-02-07T01:27:44.404Z,1006.71
2018-02-07T01:28:44.380Z,1006.73
2018-02-07T01:29:44.352Z,1006.75
2018-02-07T01:30:44.326Z,1006.75
2018-02-07T01:31:44.305Z,1006.75
2018-02-07T01:32:44.279Z,1006.80
2018-02-07T01:33:44.253Z,1006.77
2018-02-07T01:34:44.228Z,1006.78
2018-02-07T01:35:44.200Z,1006.77
2018-02-07T01:36:44.178Z,1006.79
2018-02-07T01:37:44.150Z,1006.77
2018-02-07T01:38:44.128Z,1006.76
2018-02-07T01:39:44.099Z,1006.79
2018-02-07T01:40:44.075Z,1006.78
2018-02-07T01:41:44.052Z,1006.78
2018-02-07T01:42:44.024Z,1006.78
2018-02-07T01:43:43.999Z,1006.80
2018-02-07T01:44:43.977Z,1006.80
2018-02-07T01:45:43.952Z,1006.76
2018-02-07T01:46:43.928Z,1006.80
2018-02-07T01:47:43.904Z,1006.79
2018-02-07T01:48:43.878Z,1006.71
2018-02-07T01:49:43.854Z,1006.74
2018-02-07T01:50:43.831Z,1006.78
2018-02-07T01:51:43.801Z,1006.73
2018-02-07T01:52:43.777Z,1006.77
2018-02-07T01:53:43.748Z,1006.74
2018-02-07T01:54:43.727Z,1006.76
2018-02-07T01:55:43.701Z,1006.77
2018-02-07T01:56:43.676Z,1006.73
2018-02-07T01:57:43.651Z,1006.75
2018-02-07T01:58:43.628Z,1006.75
2018-02-07T01:59:43.603Z,1006.72
2018-02-07T02:00:43.576Z,1006.71
2018-02-07T02:01:43.551Z,1006.72
2018-02-07T02:02:43.522Z,1006.71
2018-02-07T02:03:43.500Z,1006.73
2018-02-07T02:04:43.476Z,1006.74
2018-02-07T02:05:43.453Z,1006.77
2018-02-07T02:06:43.431Z,1006.73
2018-02-07T02:07:43.400Z,1006.73
2018-02-07T02:08:43.373Z,1006.72
2018-02-07T02:09:43.352Z,1006.71
2018-02-07T02:10:43.322Z,1006.66
2018-02-07T02:11:43.296Z,1006.70
2018-02-07T02:12:43.275Z,1006.73
2018-02-07T02:13:43.252Z,1006.81
2018-02-07T02:14:43.223Z,1006.79
2018-02-07T02:15:43.196Z,1006.79
2018-02-07T02:16:43.174Z,1006.75
2018-02-07T02:17:43.150Z,1006.73
2018-02-07T02:18:43.152Z,1006.73
2018-02-07T02:19:43.099Z,1006.72
2018-02-07T02:20:43.080Z,1006.77
2018-02-07T02:21:43.050Z,1006.77
2018-02-07T02:22:43.091Z,1006.77
2018-02-07T02:23:42.999Z,1006.81
2018-02-07T02:24:42.978Z,1006.78
2018-02-07T02:25:42.947Z,1006.79
2018-02-07T02:26:42.922Z,1006.78
2018-02-07T02:27:42.900Z,1006.81
2018-02-07T02:28:42.876Z,1006.80
2018-02-07T02:29:42.850Z,1006.84
2018-02-07T02:30:42.830Z,1006.84
2018-02-07T02:31:42.801Z,1006.86
2018-02-07T02:32:42.783Z,1006.86
2018-02-07T02:33:42.750Z,1006.86
2018-02-07T02:34:42.722Z,1006.86
2018-02-07T02:35:42.701Z,1006.86
2018-02-07T02:36:42.673Z,1006.82
2018-02-07T02:37:42.646Z,1006.87
2018-02-07T02:38:42.623Z,1006.87
2018-02-07T02:39:42.600Z,1006.87
2018-02-07T02:40:42.571Z,1006.85
2018-02-07T02:41:42.551Z,1006.87
2018-02-07T02:42:42.526Z,1006.89
2018-02-07T02:43:42.496Z,1006.88
2018-02-07T02:44:42.476Z,1006.93
2018-02-07T02:45:42.450Z,1006.92
2018-02-07T02:46:42.422Z,1006.89
2018-02-07T02:47:42.402Z,1006.91
2018-02-07T02:48:42.371Z,1006.93
2018-02-07T02:49:42.346Z,1006.91
2018-02-07T02:50:42.322Z,1006.92
2018-02-07T02:51:42.313Z,1006.90
2018-02-07T02:52:42.273Z,1006.93
2018-02-07T02:53:42.248Z,1006.92
2018-02-07T02:54:42.229Z,1006.95
2018-02-07T02:55:42.197Z,1006.99
2018-02-07T02:56:42.175Z,1006.95
2018-02-07T02:57:42.150Z,1006.95
2018-02-07T02:58:42.125Z,1006.93
2018-02-07T02:59:42.151Z,1006.95
2018-02-07T03:00:42.075Z,1006.94
2018-02-07T03:01:42.049Z,1006.95
2018-02-07T03:02:42.022Z,1006.94
2018-02-07T03:03:42.006Z,1006.98
2018-02-07T03:04:41.969Z,1006.96
2018-02-07T03:05:41.948Z,1006.96
2018-02-07T03:06:41.929Z,1006.96
2018-02-07T03:07:41.893Z,1006.95
2018-02-07T03:08:41.869Z,1006.95
2018-02-07T03:09:41.849Z,1007.02
2018-02-07T03:10:41.839Z,1007.02
2018-02-07T03:11:41.792Z,1006.99
2018-02-07T03:12:41.767Z,1007.03
2018-02-07T03:13:41.742Z,1007.02
2018-02-07T03:14:41.722Z,1007.03
2018-02-07T03:15:41.691Z,1007.05
2018-02-07T03:16:41.666Z,1007.04
2018-02-07T03:17:41.644Z,1007.04
2018-02-07T03:18:41.621Z,1007.05
2018-02-07T03:19:41.588Z,1007.04
2018-02-07T03:20:41.567Z,1007.05
2018-02-07T03:21:41.548Z,1007.03
2018-02-07T03:22:41.517Z,1006.97
2018-02-07T03:23:41.491Z,1006.99
2018-02-07T03:24:41.466Z,1006.96
2018-02-07T03:25:41.442Z,1006.98
2018-02-07T03:26:41.416Z,1006.96
2018-02-07T03:27:41.387Z,1006.96
2018-02-07T03:28:41.421Z,1006.99
2018-02-07T03:29:41.336Z,1006.94
2018-02-07T03:30:41.315Z,1006.91
2018-02-07T03:31:41.286Z,1006.88
2018-02-07T03:32:41.260Z,1006.93
2018-02-07T03:33:41.236Z,1006.94
2018-02-07T03:34:41.213Z,1006.92
2018-02-07T03:35:41.187Z,1006.95
2018-02-07T03:36:41.164Z,1006.94
2018-02-07T03:37:41.132Z,1006.96
2018-02-07T03:38:41.112Z,1006.98
2018-02-07T03:39:41.085Z,1006.98
2018-02-07T03:40:41.056Z,1006.97
2018-02-07T03:41:41.035Z,1006.98
2018-02-07T03:42:41.017Z,1007.02
2018-02-07T03:43:40.983Z,1007.03
2018-02-07T03:44:40.956Z,1006.99
2018-02-07T03:45:40.934Z,1006.98
2018-02-07T03:46:40.911Z,1006.97
2018-02-07T03:47:40.878Z,1006.92
2018-02-07T03:48:40.856Z,1006.94
2018-02-07T03:49:40.831Z,1006.94
2018-02-07T03:50:40.811Z,1006.95
2018-02-07T03:51:40.779Z,1006.94
2018-02-07T03:52:40.794Z,1006.95
2018-02-07T03:53:40.730Z,1006.94
2018-02-07T03:54:40.706Z,1006.98
2018-02-07T03:55:40.677Z,1006.95
2018-02-07T03:56:40.654Z,1006.99
2018-02-07T03:57:40.624Z,1006.98
2018-02-07T03:58:40.603Z,1006.99
2018-02-07T03:59:40.577Z,1006.97
2018-02-07T04:00:40.552Z,1007.02
2018-02-07T04:01:40.523Z,1007.03
2018-02-07T04:02:40.501Z,1007.00
2018-02-07T04:03:40.475Z,1007.00
2018-02-07T04:04:40.448Z,1006.97
2018-02-07T04:05:40.421Z,1007.00
2018-02-07T04:06:40.399Z,1007.00
2018-02-07T04:07:40.370Z,1006.99
2018-02-07T04:08:40.344Z,1007.04
2018-02-07T04:09:40.319Z,1006.99
2018-02-07T04:10:40.296Z,1007.07
2018-02-07T04:11:40.272Z,1007.02
2018-02-07T04:12:40.243Z,1007.07
2018-02-07T04:13:40.217Z,1007.06
2018-02-07T04:14:40.200Z,1007.08
2018-02-07T04:15:40.170Z,1007.10
2018-02-07T04:16:40.148Z,1007.10
2018-02-07T04:17:40.114Z,1007.07
2018-02-07T04:18:40.093Z,1007.09
2018-02-07T04:19:40.063Z,1007.09
2018-02-07T04:20:40.062Z,1007.13
2018-02-07T04:21:40.020Z,1007.13
2018-02-07T04:22:39.996Z,1007.12
2018-02-07T04:23:39.961Z,1007.15
2018-02-07T04:24:39.940Z,1007.14
2018-02-07T04:25:39.914Z,1007.22
2018-02-07T04:26:39.901Z,1007.24
2018-02-07T04:27:39.862Z,1007.24
2018-02-07T04:28:39.837Z,1007.20
2018-02-07T04:29:39.815Z,1007.22
2018-02-07T04:30:39.859Z,1007.21
2018-02-07T04:31:39.760Z,1007.18
2018-02-07T04:32:39.735Z,1007.20
2018-02-07T04:33:39.706Z,1007.19
2018-02-07T04:34:39.684Z,1007.24
2018-02-07T04:35:39.659Z,1007.27
2018-02-07T04:36:39.629Z,1007.24
2018-02-07T04:37:39.607Z,1007.21
2018-02-07T04:38:39.640Z,1007.22
2018-02-07T04:39:39.552Z,1007.19
2018-02-07T04:40:39.690Z,1007.24
2018-02-07T04:41:39.505Z,1007.22
2018-02-07T04:42:39.490Z,1007.22
2018-02-07T04:43:39.453Z,1007.19
2018-02-07T04:44:39.425Z,1007.16
2018-02-07T04:45:39.402Z,1007.15
2018-02-07T04:46:39.376Z,1007.12
2018-02-07T04:47:39.352Z,1007.19
2018-02-07T04:48:39.322Z,1007.12
2018-02-07T04:49:39.308Z,1007.12
2018-02-07T04:50:39.298Z,1007.13
2018-02-07T04:51:39.290Z,1007.14
2018-02-07T04:52:39.232Z,1007.11
2018-02-07T04:53:39.289Z,1007.07
2018-02-07T04:54:39.167Z,1007.05
2018-02-07T04:55:39.143Z,1007.04
2018-02-07T04:56:39.116Z,1007.03
2018-02-07T04:57:39.106Z,1007.04
2018-02-07T04:58:39.083Z,1007.02
2018-02-07T04:59:39.041Z,1007.03
2018-02-07T05:00:39.018Z,1007.06
2018-02-07T05:01:38.986Z,1007.08
2018-02-07T05:02:38.966Z,1007.10
2018-02-07T05:03:38.940Z,1007.10
2018-02-07T05:04:38.908Z,1007.12
2018-02-07T05:05:38.886Z,1007.09
2018-02-07T05:06:38.861Z,1007.06
2018-02-07T05:07:38.845Z,1007.10
2018-02-07T05:08:38.829Z,1007.05
2018-02-07T05:09:38.863Z,1007.09
2018-02-07T05:10:38.760Z,1007.03
2018-02-07T05:11:38.738Z,1007.07
2018-02-07T05:12:38.731Z,1007.07
2018-02-07T05:13:38.698Z,1007.10
2018-02-07T05:14:38.664Z,1007.11
2018-02-07T05:15:38.637Z,1007.12
2018-02-07T05:16:38.612Z,1007.13
2018-02-07T05:17:38.590Z,1007.16
2018-02-07T05:18:38.550Z,1007.19
2018-02-07T05:19:38.545Z,1007.20
2018-02-07T05:20:38.532Z,1007.18
2018-02-07T05:21:38.497Z,1007.22
2018-02-07T05:22:38.455Z,1007.28
2018-02-07T05:23:38.425Z,1007.30
2018-02-07T05:24:38.393Z,1007.29
2018-02-07T05:25:38.383Z,1007.26
2018-02-07T05:26:38.355Z,1007.28
2018-02-07T05:27:38.381Z,1007.22
2018-02-07T05:28:38.338Z,1007.31
2018-02-07T05:29:38.322Z,1007.31
2018-02-07T05:30:38.474Z,1007.32
2018-02-07T05:31:38.297Z,1007.30
2018-02-07T05:32:38.243Z,1007.30
2018-02-07T05:33:38.210Z,1007.33
2018-02-07T05:34:38.171Z,1007.30
2018-02-07T05:35:38.152Z,1007.31
2018-02-07T05:36:38.216Z,1007.32
2018-02-07T05:37:38.099Z,1007.33
2018-02-07T05:38:38.089Z,1007.31
2018-02-07T05:39:38.020Z,1007.37
2018-02-07T05:40:38.012Z,1007.36
2018-02-07T05:41:38.022Z,1007.41
2018-02-07T05:42:37.962Z,1007.34
2018-02-07T05:43:38.007Z,1007.42
2018-02-07T05:44:37.879Z,1007.37
2018-02-07T05:45:37.867Z,1007.40
2018-02-07T05:46:37.846Z,1007.31
2018-02-07T05:47:37.847Z,1007.36
2018-02-07T05:48:37.862Z,1007.35
2018-02-07T05:49:37.770Z,1007.41
2018-02-07T05:50:37.755Z,1007.38
2018-02-07T05:51:37.753Z,1007.42
2018-02-07T05:52:37.676Z,1007.47
2018-02-07T05:53:37.643Z,1007.44
2018-02-07T05:54:37.676Z,1007.47
2018-02-07T05:55:37.621Z,1007.47
2018-02-07T05:56:37.571Z,1007.46
2018-02-07T05:57:37.549Z,1007.44
2018-02-07T05:58:37.520Z,1007.43
2018-02-07T05:59:37.500Z,1007.43
2018-02-07T06:00:37.467Z,1007.40
2018-02-07T06:01:37.463Z,1007.42
2018-02-07T06:02:37.424Z,1007.41
2018-02-07T06:03:37.414Z,1007.38
2018-02-07T06:04:37.359Z,1007.41
2018-02-07T06:05:37.332Z,1007.39
2018-02-07T06:06:37.307Z,1007.43
2018-02-07T06:07:37.298Z,1007.41
2018-02-07T06:08:37.246Z,1007.41
2018-02-07T06:09:37.300Z,1007.40
2018-02-07T06:10:37.210Z,1007.45
2018-02-07T06:11:37.186Z,1007.40
2018-02-07T06:12:37.167Z,1007.42
2018-02-07T06:13:37.128Z,1007.43
2018-02-07T06:14:37.091Z,1007.48
2018-02-07T06:15:37.065Z,1007.46
2018-02-07T06:16:37.061Z,1007.52
2018-02-07T06:17:37.034Z,1007.50
2018-02-07T06:18:37.019Z,1007.51
2018-02-07T06:19:36.971Z,1007.55
2018-02-07T06:20:36.943Z,1007.54
2018-02-07T06:21:36.942Z,1007.56
2018-02-07T06:22:37.832Z,1007.55
2018-02-07T06:23:36.894Z,1007.57
2018-02-07T06:24:36.855Z,1007.60
2018-02-07T06:25:36.801Z,1007.60
2018-02-07T06:26:36.784Z,1007.56
2018-02-07T06:27:36.769Z,1007.60
2018-02-07T06:28:36.785Z,1007.61
2018-02-07T06:29:36.737Z,1007.57
2018-02-07T06:30:36.691Z,1007.62
2018-02-07T06:31:36.649Z,1007.63
2018-02-07T06:32:36.647Z,1007.64
2018-02-07T06:33:36.600Z,1007.69
2018-02-07T06:34:36.574Z,1007.74
2018-02-07T06:35:36.553Z,1007.73
2018-02-07T06:36:36.552Z,1007.73
2018-02-07T06:37:36.522Z,1007.84
2018-02-07T06:38:36.459Z,1007.85
2018-02-07T06:39:36.483Z,1007.88
2018-02-07T06:40:36.409Z,1007.91
2018-02-07T06:41:36.383Z,1007.86
2018-02-07T06:42:36.371Z,1007.91
2018-02-07T06:43:36.398Z,1007.93
2018-02-07T06:44:36.324Z,1007.90
2018-02-07T06:45:36.278Z,1007.88
2018-02-07T06:46:36.258Z,1007.90
2018-02-07T06:47:36.236Z,1007.88
2018-02-07T06:48:36.226Z,1007.90
2018-02-07T06:49:36.171Z,1007.86
2018-02-07T06:50:36.165Z,1007.91
2018-02-07T06:51:36.158Z,1007.91
2018-02-07T06:52:36.144Z,1007.88
2018-02-07T06:53:36.099Z,1007.91
2018-02-07T06:54:36.051Z,1007.86
2018-02-07T06:55:36.019Z,1007.88
2018-02-07T06:56:35.985Z,1007.89
2018-02-07T06:57:35.966Z,1007.84
2018-02-07T06:58:35.956Z,1007.86
2018-02-07T06:59:35.907Z,1007.87
2018-02-07T07:00:35.886Z,1007.97
2018-02-07T07:01:35.855Z,1007.95
2018-02-07T07:02:35.829Z,1007.95
2018-02-07T07:03:35.806Z,1007.93
2018-02-07T07:04:35.783Z,1007.93
2018-02-07T07:05:35.743Z,1007.91
2018-02-07T07:06:35.753Z,1007.86
2018-02-07T07:07:35.707Z,1007.86
2018-02-07T07:08:35.672Z,1007.96
2018-02-07T07:09:35.666Z,1007.94
2018-02-07T07:10:35.615Z,1007.99
2018-02-07T07:11:35.594Z,1007.96
2018-02-07T07:12:35.556Z,1008.04
2018-02-07T07:13:35.538Z,1008.06
2018-02-07T07:14:35.536Z,1008.07
2018-02-07T07:15:35.486Z,1008.04
2018-02-07T07:16:35.487Z,1008.01
2018-02-07T07:17:35.459Z,1008.02
2018-02-07T07:18:35.522Z,1007.97
2018-02-07T07:19:35.382Z,1008.05
2018-02-07T07:20:35.346Z,1008.07
2018-02-07T07:21:35.329Z,1008.10
2018-02-07T07:22:35.301Z,1008.11
2018-02-07T07:23:35.286Z,1008.09
2018-02-07T07:24:35.250Z,1008.15
2018-02-07T07:25:35.220Z,1008.15
2018-02-07T07:26:35.197Z,1008.16
2018-02-07T07:27:35.174Z,1008.20
2018-02-07T07:28:35.160Z,1008.20
2018-02-07T07:29:35.121Z,1008.18
2018-02-07T07:30:35.084Z,1008.21
2018-02-07T07:31:35.062Z,1008.22
2018-02-07T07:32:35.044Z,1008.24
2018-02-07T07:33:35.063Z,1008.22
2018-02-07T07:34:34.981Z,1008.25
2018-02-07T07:35:34.950Z,1008.24
2018-02-07T07:36:34.925Z,1008.26
2018-02-07T07:37:34.896Z,1008.25
2018-02-07T07:38:34.910Z,1008.24
2018-02-07T07:39:34.895Z,1008.26
2018-02-07T07:40:34.878Z,1008.27
2018-02-07T07:41:34.823Z,1008.30
2018-02-07T07:42:34.774Z,1008.36
2018-02-07T07:43:34.745Z,1008.31
2018-02-07T07:44:34.725Z,1008.33
2018-02-07T07:45:34.735Z,1008.32
2018-02-07T07:46:34.670Z,1008.37
2018-02-07T07:47:34.628Z,1008.35
2018-02-07T07:48:34.609Z,1008.38
2018-02-07T07:49:34.579Z,1008.40
2018-02-07T07:50:34.568Z,1008.42
2018-02-07T07:51:34.531Z,1008.41
2018-02-07T07:52:34.512Z,1008.48
2018-02-07T07:53:34.492Z,1008.44
2018-02-07T07:54:34.455Z,1008.49
2018-02-07T07:55:34.414Z,1008.47
2018-02-07T07:56:34.411Z,1008.47
2018-02-07T07:57:34.377Z,1008.45
2018-02-07T07:58:34.337Z,1008.46
2018-02-07T07:59:34.311Z,1008.44
2018-02-07T08:00:34.292Z,1008.55
2018-02-07T08:01:34.264Z,1008.48
2018-02-07T08:02:34.230Z,1008.58
2018-02-07T08:03:34.211Z,1008.58
2018-02-07T08:04:34.182Z,1008.59
2018-02-07T08:05:34.157Z,1008.60
2018-02-07T08:06:34.134Z,1008.56
2018-02-07T08:07:34.100Z,1008.54
2018-02-07T08:08:34.093Z,1008.55
2018-02-07T08:09:34.061Z,1008.61
2018-02-07T08:10:34.037Z,1008.57
2018-02-07T08:11:34.013Z,1008.54
2018-02-07T08:12:34.004Z,1008.52
2018-02-07T08:13:33.962Z,1008.51
2018-02-07T08:14:33.961Z,1008.52
2018-02-07T08:15:33.886Z,1008.50
2018-02-07T08:16:33.866Z,1008.50
2018-02-07T08:17:33.836Z,1008.49
2018-02-07T08:18:33.828Z,1008.51
2018-02-07T08:19:33.790Z,1008.48
2018-02-07T08:20:33.759Z,1008.49
2018-02-07T08:21:33.753Z,1008.49
2018-02-07T08:22:33.722Z,1008.50
2018-02-07T08:23:33.679Z,1008.53
2018-02-07T08:24:33.677Z,1008.53
2018-02-07T08:25:33.624Z,1008.53
2018-02-07T08:26:33.603Z,1008.53
2018-02-07T08:27:33.581Z,1008.53
2018-02-07T08:28:33.551Z,1008.58
2018-02-07T08:29:33.550Z,1008.56
2018-02-07T08:30:33.593Z,1008.57
2018-02-07T08:31:33.466Z,1008.56
2018-02-07T08:32:33.486Z,1008.60
2018-02-07T08:33:33.433Z,1008.58
2018-02-07T08:34:33.378Z,1008.60
2018-02-07T08:35:33.359Z,1008.62
2018-02-07T08:36:33.342Z,1008.66
2018-02-07T08:37:33.350Z,1008.67
2018-02-07T08:38:33.297Z,1008.67
2018-02-07T08:39:33.274Z,1008.68
2018-02-07T08:40:33.220Z,1008.73
2018-02-07T08:41:33.279Z,1008.72
2018-02-07T08:42:33.166Z,1008.73
2018-02-07T08:43:33.144Z,1008.75
2018-02-07T08:44:33.115Z,1008.78
2018-02-07T08:45:33.099Z,1008.76
2018-02-07T08:46:33.091Z,1008.74
2018-02-07T08:47:33.031Z,1008.79
2018-02-07T08:48:33.015Z,1008.73
2018-02-07T08:49:32.982Z,1008.75
2018-02-07T08:50:32.959Z,1008.76
2018-02-07T08:51:32.938Z,1008.72
2018-02-07T08:52:32.933Z,1008.76
2018-02-07T08:53:32.968Z,1008.77
2018-02-07T08:54:32.855Z,1008.78
2018-02-07T08:55:32.834Z,1008.84
2018-02-07T08:56:32.806Z,1008.88
2018-02-07T08:57:32.785Z,1008.89
2018-02-07T08:58:32.745Z,1008.93
2018-02-07T08:59:32.724Z,1008.96
2018-02-07T09:00:32.714Z,1008.93
2018-02-07T09:01:32.666Z,1008.90
2018-02-07T09:02:32.638Z,1008.91
2018-02-07T09:03:32.608Z,1008.94
2018-02-07T09:04:32.623Z,1008.91
2018-02-07T09:05:32.572Z,1008.95
2018-02-07T09:06:32.543Z,1008.93
2018-02-07T09:07:32.530Z,1008.98
2018-02-07T09:08:32.482Z,1008.95
2018-02-07T09:09:32.542Z,1008.95
2018-02-07T09:10:32.454Z,1008.97
2018-02-07T09:11:32.513Z,1008.98
2018-02-07T09:12:32.387Z,1008.97
2018-02-07T09:13:32.375Z,1009.02
2018-02-07T09:14:32.319Z,1009.01
2018-02-07T09:15:32.309Z,1008.98
2018-02-07T09:16:32.281Z,1009.03
2018-02-07T09:17:32.256Z,1009.11
2018-02-07T09:18:32.215Z,1009.16
2018-02-07T09:19:32.232Z,1009.13
2018-02-07T09:20:32.176Z,1009.10
2018-02-07T09:21:32.158Z,1009.09
2018-02-07T09:22:32.206Z,1009.11
2018-02-07T09:23:32.141Z,1009.08
2018-02-07T09:24:32.084Z,1009.00
2018-02-07T09:25:32.054Z,1009.03
2018-02-07T09:26:32.034Z,1009.03
2018-02-07T09:27:31.970Z,1009.05
2018-02-07T09:28:31.968Z,1009.06
2018-02-07T09:29:31.947Z,1009.01
2018-02-07T09:30:31.916Z,1009.03
2018-02-07T09:31:31.881Z,1009.13
2018-02-07T09:32:31.894Z,1009.10
2018-02-07T09:33:31.833Z,1009.06
2018-02-07T09:34:31.799Z,1009.12
2018-02-07T09:35:31.783Z,1009.11
2018-02-07T09:36:31.745Z,1009.13
2018-02-07T09:37:31.714Z,1009.11
2018-02-07T09:38:31.701Z,1009.17
2018-02-07T09:39:31.716Z,1009.14
2018-02-07T09:40:31.661Z,1009.10
2018-02-07T09:41:31.646Z,1009.09
2018-02-07T09:42:31.608Z,1009.07
2018-02-07T09:43:31.592Z,1009.18
2018-02-07T09:44:31.546Z,1009.14
2018-02-07T09:45:31.524Z,1009.18
2018-02-07T09:46:31.537Z,1009.20
2018-02-07T09:47:31.504Z,1009.20
2018-02-07T09:48:31.435Z,1009.19
2018-02-07T09:49:31.407Z,1009.23
2018-02-07T09:50:31.410Z,1009.28
2018-02-07T09:51:31.360Z,1009.30
2018-02-07T09:52:31.385Z,1009.30
2018-02-07T09:53:31.326Z,1009.29
2018-02-07T09:54:31.284Z,1009.30
2018-02-07T09:55:31.265Z,1009.28
2018-02-07T09:56:31.230Z,1009.32
2018-02-07T09:57:31.232Z,1009.34
2018-02-07T09:58:31.192Z,1009.35
2018-02-07T09:59:31.167Z,1009.39
2018-02-07T10:00:31.179Z,1009.33
2018-02-07T10:01:31.101Z,1009.34
2018-02-07T10:02:31.078Z,1009.34
2018-02-07T10:03:31.054Z,1009.40
2018-02-07T10:04:31.042Z,1009.34
2018-02-07T10:05:31.064Z,1009.39
2018-02-07T10:06:31.142Z,1009.37
2018-02-07T10:07:30.986Z,1009.40
2018-02-07T10:08:30.944Z,1009.43
2018-02-07T10:09:30.928Z,1009.31
2018-02-07T10:10:30.878Z,1009.38
2018-02-07T10:11:30.866Z,1009.37
2018-02-07T10:12:30.820Z,1009.35
2018-02-07T10:13:30.852Z,1009.37
2018-02-07T10:14:30.785Z,1009.43
2018-02-07T10:15:30.750Z,1009.41
2018-02-07T10:16:30.736Z,1009.42
2018-02-07T10:17:30.714Z,1009.36
2018-02-07T10:18:30.692Z,1009.38
2018-02-07T10:19:30.687Z,1009.41
2018-02-07T10:20:30.623Z,1009.39
2018-02-07T10:21:30.607Z,1009.37
2018-02-07T10:22:30.594Z,1009.39
2018-02-07T10:23:30.552Z,1009.40
2018-02-07T10:24:30.517Z,1009.36
2018-02-07T10:25:30.551Z,1009.38
2018-02-07T10:26:30.506Z,1009.40
2018-02-07T10:27:30.454Z,1009.41
2018-02-07T10:28:30.453Z,1009.43
2018-02-07T10:29:30.436Z,1009.43
2018-02-07T10:30:30.400Z,1009.42
2018-02-07T10:31:30.353Z,1009.46
2018-02-07T10:32:30.339Z,1009.50
2018-02-07T10:33:30.318Z,1009.45
2018-02-07T10:34:30.311Z,1009.44
2018-02-07T10:35:30.296Z,1009.49
2018-02-07T10:36:30.308Z,1009.47
2018-02-07T10:37:30.550Z,1009.49
2018-02-07T10:38:30.426Z,1009.54
2018-02-07T10:39:30.376Z,1009.54
2018-02-07T10:40:30.398Z,1009.55
2018-02-07T10:41:30.302Z,1009.53
2018-02-07T10:42:30.367Z,1009.52
2018-02-07T10:43:30.060Z,1009.53
2018-02-07T10:44:30.299Z,1009.52
2018-02-07T10:45:31.247Z,1009.56
2018-02-07T10:46:30.152Z,1009.60
2018-02-07T10:47:30.147Z,1009.50
2018-02-07T10:48:30.136Z,1009.52
2018-02-07T10:49:30.173Z,1009.53
2018-02-07T10:50:29.891Z,1009.52
2018-02-07T10:51:30.117Z,1009.49
2018-02-07T10:52:29.916Z,1009.56
2018-02-07T10:53:30.112Z,1009.52
2018-02-07T10:54:29.840Z,1009.52
2018-02-07T10:55:30.603Z,1009.57
2018-02-07T10:56:29.979Z,1009.52
2018-02-07T10:57:29.959Z,1009.51
2018-02-07T10:58:29.716Z,1009.53
2018-02-07T10:59:29.845Z,1009.53
2018-02-07T11:00:29.797Z,1009.53
2018-02-07T11:01:29.852Z,1009.57
2018-02-07T11:02:29.847Z,1009.56
2018-02-07T11:03:29.797Z,1009.54
2018-02-07T11:04:29.654Z,1009.51
2018-02-07T11:05:29.827Z,1009.50
2018-02-07T11:06:30.498Z,1009.50
2018-02-07T11:07:29.760Z,1009.49
2018-02-07T11:08:29.748Z,1009.53
2018-02-07T11:09:29.448Z,1009.52
2018-02-07T11:10:29.670Z,1009.53
2018-02-07T11:11:29.623Z,1009.55
2018-02-07T11:12:29.488Z,1009.49
2018-02-07T11:13:29.556Z,1009.48
2018-02-07T11:14:29.464Z,1009.49
2018-02-07T11:15:29.486Z,1009.49
2018-02-07T11:16:29.449Z,1009.55
2018-02-07T11:17:29.459Z,1009.55
2018-02-07T11:18:29.425Z,1009.54
2018-02-07T11:19:29.443Z,1009.52
2018-02-07T11:20:29.418Z,1009.57
2018-02-07T11:21:29.387Z,1009.58
2018-02-07T11:22:29.199Z,1009.56
2018-02-07T11:23:29.172Z,1009.57
2018-02-07T11:24:29.327Z,1009.61
2018-02-07T11:25:29.322Z,1009.56
2018-02-07T11:26:29.916Z,1009.58
2018-02-07T11:27:29.229Z,1009.60
2018-02-07T11:28:29.021Z,1009.59
2018-02-07T11:29:29.248Z,1009.57
2018-02-07T11:30:29.128Z,1009.58
2018-02-07T11:31:28.925Z,1009.57
2018-02-07T11:32:29.135Z,1009.58
2018-02-07T11:33:29.028Z,1009.57
2018-02-07T11:34:29.124Z,1009.58
2018-02-07T11:35:28.965Z,1009.56
2018-02-07T11:36:29.033Z,1009.55
2018-02-07T11:37:28.897Z,1009.55
2018-02-07T11:38:28.834Z,1009.52
2018-02-07T11:39:28.979Z,1009.49
2018-02-07T11:40:28.696Z,1009.56
2018-02-07T11:41:28.990Z,1009.47
2018-02-07T11:42:28.928Z,1009.53
2018-02-07T11:43:28.782Z,1009.51
2018-02-07T11:44:28.817Z,1009.50
2018-02-07T11:45:28.586Z,1009.50
2018-02-07T11:46:28.525Z,1009.51
2018-02-07T11:47:28.525Z,1009.50
2018-02-07T11:48:28.510Z,1009.52
2018-02-07T11:49:28.456Z,1009.51
2018-02-07T11:50:28.451Z,1009.51
2018-02-07T11:51:28.420Z,1009.50
2018-02-07T11:52:28.393Z,1009.54
2018-02-07T11:53:28.367Z,1009.48
2018-02-07T11:54:28.374Z,1009.51
2018-02-07T11:55:28.319Z,1009.47
2018-02-07T11:56:28.338Z,1009.46
2018-02-07T11:57:28.282Z,1009.41
2018-02-07T11:58:28.885Z,1009.38
2018-02-07T11:59:28.394Z,1009.36
2018-02-07T12:00:28.243Z,1009.43
2018-02-07T12:01:28.171Z,1009.42
2018-02-07T12:02:28.152Z,1009.45
2018-02-07T12:03:28.130Z,1009.42
2018-02-07T12:04:28.095Z,1009.39
2018-02-07T12:05:28.133Z,1009.40